createdAt,value
2019-03-16T00:00:33.886Z,56.11
2019-03-16T00:03:05.581Z,56.69
2019-03-16T00:05:37.214Z,55.25
2019-03-16T00:08:08.994Z,54.58
2019-03-16T00:10:40.662Z,54.86
2019-03-16T00:13:15.856Z,54.88
2019-03-16T00:15:45.650Z,54.48
2019-03-16T00:18:17.344Z,54.14
2019-03-16T00:20:48.930Z,53.82
2019-03-16T00:23:20.778Z,53.96
2019-03-16T00:25:52.510Z,52.82
2019-03-16T00:28:24.446Z,53.92
2019-03-16T00:30:56.108Z,53.67
2019-03-16T00:33:27.713Z,54.26
2019-03-16T00:35:59.287Z,54.11
2019-03-16T00:38:30.891Z,54.15
2019-03-16T00:41:02.469Z,52.92
2019-03-16T00:43:34.226Z,53.40
2019-03-16T00:46:05.770Z,53.37
2019-03-16T00:48:37.370Z,52.66
2019-03-16T00:51:08.962Z,53.37
2019-03-16T00:53:40.625Z,54.15
2019-03-16T00:56:12.255Z,53.49
2019-03-16T00:58:43.868Z,53.78
2019-03-16T01:01:15.516Z,54.19
2019-03-16T01:03:47.193Z,54.46
2019-03-16T01:06:18.777Z,53.88
2019-03-16T01:08:50.681Z,54.50
2019-03-16T01:11:22.509Z,53.80
2019-03-16T01:13:54.357Z,54.03
2019-03-16T01:16:26.004Z,54.33
2019-03-16T01:18:57.601Z,54.58
2019-03-16T01:21:29.193Z,54.23
2019-03-16T01:24:00.861Z,54.89
2019-03-16T01:26:32.443Z,53.74
2019-03-16T01:29:04.048Z,54.04
2019-03-16T01:31:35.632Z,53.92
2019-03-16T01:34:07.227Z,54.22
2019-03-16T01:36:38.803Z,54.00
2019-03-16T01:39:10.494Z,54.01
2019-03-16T01:41:42.091Z,53.43
2019-03-16T01:44:13.704Z,54.21
2019-03-16T01:46:45.286Z,54.06
2019-03-16T01:49:16.883Z,54.03
2019-03-16T01:51:49.545Z,54.39
2019-03-16T01:54:21.344Z,54.77
2019-03-16T01:56:52.922Z,53.62
2019-03-16T01:59:24.622Z,54.68
2019-03-16T02:01:56.208Z,54.00
2019-03-16T02:04:27.903Z,53.98
2019-03-16T02:06:59.553Z,53.88
2019-03-16T02:09:31.332Z,54.97
2019-03-16T02:12:02.921Z,53.89
2019-03-16T02:14:34.533Z,53.99
2019-03-16T02:17:06.287Z,54.47
2019-03-16T02:19:37.905Z,54.14
2019-03-16T02:22:09.487Z,53.95
2019-03-16T02:24:41.089Z,54.37
2019-03-16T02:27:12.740Z,54.26
2019-03-16T02:29:44.337Z,54.24
2019-03-16T02:32:15.928Z,54.22
2019-03-16T02:34:47.528Z,54.41
2019-03-16T02:37:19.114Z,54.82
2019-03-16T02:39:51.228Z,54.98
2019-03-16T02:42:22.819Z,54.95
2019-03-16T02:44:54.598Z,55.19
2019-03-16T02:47:26.274Z,55.35
2019-03-16T02:49:57.938Z,55.29
2019-03-16T02:52:29.513Z,55.46
2019-03-16T02:55:01.301Z,55.52
2019-03-16T02:57:33.124Z,54.71
2019-03-16T03:00:05.170Z,55.28
2019-03-16T03:02:36.922Z,54.89
2019-03-16T03:05:08.880Z,54.92
2019-03-16T03:07:40.514Z,55.19
2019-03-16T03:10:12.280Z,55.14
2019-03-16T03:12:43.943Z,54.88
2019-03-16T03:15:16.621Z,54.76
2019-03-16T03:17:48.205Z,55.29
2019-03-16T03:20:19.854Z,55.77
2019-03-16T03:22:51.593Z,56.15
2019-03-16T03:25:23.248Z,55.54
2019-03-16T03:27:54.848Z,55.94
2019-03-16T03:30:26.462Z,55.68
2019-03-16T03:32:58.066Z,55.66
2019-03-16T03:35:29.851Z,55.95
2019-03-16T03:38:01.509Z,56.42
2019-03-16T03:40:33.192Z,55.75
2019-03-16T03:43:04.841Z,56.37
2019-03-16T03:45:36.449Z,56.22
2019-03-16T03:48:08.107Z,56.19
2019-03-16T03:50:39.703Z,56.17
2019-03-16T03:53:11.357Z,56.21
2019-03-16T03:55:42.955Z,55.98
2019-03-16T03:58:14.526Z,56.35
2019-03-16T04:00:46.112Z,55.86
2019-03-16T04:03:17.792Z,55.72
2019-03-16T04:05:49.520Z,55.95
2019-03-16T04:08:21.346Z,56.41
2019-03-16T04:10:53.043Z,56.46
2019-03-16T04:13:24.732Z,56.18
2019-03-16T04:15:56.313Z,56.90
2019-03-16T04:18:28.002Z,56.52
2019-03-16T04:20:59.619Z,56.34
2019-03-16T04:23:32.285Z,56.36
2019-03-16T04:26:03.948Z,56.59
2019-03-16T04:28:35.547Z,56.46
2019-03-16T04:31:07.250Z,56.35
2019-03-16T04:33:39.015Z,56.71
2019-03-16T04:36:10.625Z,56.81
2019-03-16T04:38:42.308Z,56.49
2019-03-16T04:41:14.096Z,56.81
2019-03-16T04:43:45.805Z,56.51
2019-03-16T04:46:17.506Z,56.92
2019-03-16T04:48:49.197Z,56.92
2019-03-16T04:51:20.799Z,56.35
2019-03-16T04:53:52.524Z,57.43
2019-03-16T04:56:24.481Z,56.72
2019-03-16T04:58:56.070Z,57.25
2019-03-16T05:01:27.746Z,57.08
2019-03-16T05:03:59.516Z,57.37
2019-03-16T05:06:31.484Z,57.44
2019-03-16T05:09:03.421Z,57.78
2019-03-16T05:11:35.109Z,57.85
2019-03-16T05:14:06.690Z,57.72
2019-03-16T05:16:38.463Z,58.01
2019-03-16T05:19:10.165Z,58.52
2019-03-16T05:21:41.957Z,58.06
2019-03-16T05:24:13.667Z,58.50
2019-03-16T05:26:45.271Z,58.64
2019-03-16T05:29:16.863Z,59.15
2019-03-16T05:31:50.662Z,58.85
2019-03-16T05:34:21.896Z,58.78
2019-03-16T05:36:56.085Z,58.84
2019-03-16T05:39:27.112Z,58.92
2019-03-16T05:41:58.819Z,58.83
2019-03-16T05:44:30.502Z,59.15
2019-03-16T05:47:02.188Z,59.21
2019-03-16T05:49:33.771Z,59.04
2019-03-16T05:52:05.478Z,59.07
2019-03-16T05:54:37.069Z,59.37
2019-03-16T05:57:08.677Z,59.57
2019-03-16T05:59:40.267Z,59.40
2019-03-16T06:02:12.570Z,59.54
2019-03-16T06:04:44.259Z,60.13
2019-03-16T06:07:15.966Z,59.84
2019-03-16T06:09:47.667Z,60.08
2019-03-16T06:12:19.291Z,59.83
2019-03-16T06:14:50.875Z,59.54
2019-03-16T06:17:22.679Z,59.63
2019-03-16T06:19:54.442Z,59.92
2019-03-16T06:22:26.039Z,59.51
2019-03-16T06:24:57.646Z,59.55
2019-03-16T06:27:29.270Z,59.96
2019-03-16T06:30:00.874Z,59.89
2019-03-16T06:32:33.633Z,59.72
2019-03-16T06:35:05.241Z,59.75
2019-03-16T06:37:36.923Z,59.26
2019-03-16T06:40:08.654Z,59.11
2019-03-16T06:42:40.374Z,58.95
2019-03-16T06:45:12.131Z,59.11
2019-03-16T06:47:43.747Z,58.28
2019-03-16T06:50:15.443Z,58.82
2019-03-16T06:52:47.031Z,58.53
2019-03-16T06:55:18.614Z,58.90
2019-03-16T06:57:50.191Z,59.29
2019-03-16T07:00:21.781Z,58.03
2019-03-16T07:02:53.637Z,58.25
2019-03-16T07:05:37.540Z,58.76
2019-03-16T07:07:59.022Z,59.12
2019-03-16T07:10:30.670Z,59.65
2019-03-16T07:13:02.250Z,59.71
2019-03-16T07:15:33.873Z,59.12
2019-03-16T07:18:05.590Z,59.54
2019-03-16T07:20:37.185Z,58.96
2019-03-16T07:23:09.883Z,58.72
2019-03-16T07:25:41.590Z,58.79
2019-03-16T07:28:13.490Z,58.70
2019-03-16T07:30:45.170Z,58.93
2019-03-16T07:33:16.819Z,58.98
2019-03-16T07:35:48.417Z,59.97
2019-03-16T07:38:20.091Z,59.03
2019-03-16T07:40:51.759Z,59.65
2019-03-16T07:43:23.627Z,58.83
2019-03-16T07:45:55.498Z,59.14
2019-03-16T07:48:27.095Z,58.75
2019-03-16T07:50:58.690Z,58.84
2019-03-16T07:53:30.298Z,59.21
2019-03-16T07:56:03.679Z,59.11
2019-03-16T07:58:35.374Z,58.37
2019-03-16T08:01:06.957Z,58.87
2019-03-16T08:03:38.574Z,58.77
2019-03-16T08:06:10.158Z,58.27
2019-03-16T08:08:41.841Z,58.53
2019-03-16T08:11:13.429Z,58.36
2019-03-16T08:13:45.030Z,58.03
2019-03-16T08:16:16.627Z,57.71
2019-03-16T08:18:48.307Z,58.05
2019-03-16T08:21:19.959Z,57.69
2019-03-16T08:23:53.746Z,57.39
2019-03-16T08:26:24.958Z,57.51
2019-03-16T08:28:59.154Z,57.34
2019-03-16T08:31:29.911Z,57.07
2019-03-16T08:34:01.603Z,57.23
2019-03-16T08:36:33.261Z,57.14
2019-03-16T08:39:05.675Z,56.64
2019-03-16T08:41:37.266Z,56.15
2019-03-16T08:44:08.883Z,56.00
2019-03-16T08:46:41.006Z,56.50
2019-03-16T08:49:12.762Z,56.92
2019-03-16T08:51:44.367Z,55.96
2019-03-16T08:54:15.969Z,55.88
2019-03-16T08:56:47.645Z,56.10
2019-03-16T08:59:19.309Z,55.69
2019-03-16T09:01:51.976Z,56.08
2019-03-16T09:04:23.692Z,55.26
2019-03-16T09:06:56.248Z,55.60
2019-03-16T09:09:27.854Z,55.17
2019-03-16T09:12:00.520Z,56.08
2019-03-16T09:14:32.117Z,55.29
2019-03-16T09:17:04.021Z,53.74
2019-03-16T09:19:35.858Z,53.50
2019-03-16T09:22:07.573Z,53.38
2019-03-16T09:24:39.264Z,53.22
2019-03-16T09:27:10.947Z,53.87
2019-03-16T09:29:42.562Z,52.49
2019-03-16T09:32:14.153Z,52.64
2019-03-16T09:34:45.760Z,52.21
2019-03-16T09:37:17.341Z,52.67
2019-03-16T09:39:48.964Z,53.74
2019-03-16T09:42:20.810Z,53.42
2019-03-16T09:44:52.656Z,53.75
2019-03-16T09:47:24.589Z,54.63
2019-03-16T09:50:20.335Z,56.06
2019-03-16T09:52:52.809Z,55.17
2019-03-16T09:55:25.392Z,56.53
2019-03-16T09:57:57.084Z,56.36
2019-03-16T10:00:28.713Z,55.70
2019-03-16T10:03:00.310Z,55.80
2019-03-16T10:05:31.924Z,54.30
2019-03-16T10:08:03.586Z,53.96
2019-03-16T10:10:35.451Z,54.58
2019-03-16T10:13:07.612Z,53.16
2019-03-16T10:15:41.275Z,53.04
2019-03-16T10:18:13.234Z,53.12
2019-03-16T10:20:44.979Z,52.55
2019-03-16T10:23:17.817Z,52.37
2019-03-16T10:25:49.826Z,52.62
2019-03-16T10:28:22.113Z,52.51
2019-03-16T10:30:53.772Z,51.27
2019-03-16T10:33:25.466Z,51.40
2019-03-16T10:35:58.138Z,51.81
2019-03-16T10:38:29.734Z,51.58
2019-03-16T10:41:01.349Z,50.60
2019-03-16T10:43:34.469Z,50.55
2019-03-16T10:46:08.365Z,51.35
2019-03-16T10:48:39.740Z,50.85
2019-03-16T10:51:11.439Z,50.74
2019-03-16T10:53:43.094Z,50.23
2019-03-16T10:56:14.814Z,49.56
2019-03-16T10:58:56.130Z,48.50
2019-03-16T11:01:20.254Z,48.39
2019-03-16T11:03:52.652Z,49.65
2019-03-16T11:06:24.631Z,48.48
2019-03-16T11:08:56.677Z,49.10
2019-03-16T11:11:28.305Z,50.75
2019-03-16T11:14:00.089Z,48.32
2019-03-16T11:16:33.520Z,48.50
2019-03-16T11:19:05.584Z,48.90
2019-03-16T11:21:37.361Z,48.79
2019-03-16T11:24:09.169Z,49.26
2019-03-16T11:26:41.127Z,50.17
2019-03-16T11:29:13.031Z,50.14
2019-03-16T11:31:45.021Z,50.03
2019-03-16T11:34:16.850Z,50.38
2019-03-16T11:36:48.576Z,50.40
2019-03-16T11:39:20.482Z,50.00
2019-03-16T11:41:54.077Z,49.22
2019-03-16T11:44:28.105Z,48.38
2019-03-16T11:46:59.826Z,49.19
2019-03-16T11:49:31.711Z,48.56
2019-03-16T11:52:03.891Z,48.73
2019-03-16T11:54:35.773Z,48.92
2019-03-16T11:57:07.626Z,48.75
2019-03-16T11:59:39.367Z,47.61
2019-03-16T12:02:11.055Z,47.63
2019-03-16T12:04:42.961Z,47.93
2019-03-16T12:07:14.756Z,47.21
2019-03-16T12:09:46.517Z,47.42
2019-03-16T12:12:18.293Z,47.70
2019-03-16T12:14:50.156Z,46.67
2019-03-16T12:17:22.192Z,44.76
2019-03-16T12:19:54.001Z,45.42
2019-03-16T12:22:25.730Z,45.42
2019-03-16T12:24:58.304Z,45.89
2019-03-16T12:27:30.338Z,46.61
2019-03-16T12:30:06.039Z,47.07
2019-03-16T12:32:40.899Z,46.95
2019-03-16T12:35:14.806Z,48.44
2019-03-16T12:37:46.969Z,47.51
2019-03-16T12:40:18.979Z,47.56
2019-03-16T12:42:50.620Z,47.59
2019-03-16T12:45:22.661Z,47.91
2019-03-16T12:47:54.394Z,48.12
2019-03-16T12:50:26.294Z,48.15
2019-03-16T12:52:58.394Z,47.39
2019-03-16T12:55:30.487Z,48.04
2019-03-16T12:58:03.643Z,48.53
2019-03-16T13:00:35.668Z,46.66
2019-03-16T13:03:07.966Z,46.76
2019-03-16T13:05:40.302Z,45.69
2019-03-16T13:08:12.452Z,45.48
2019-03-16T13:10:44.765Z,45.46
2019-03-16T13:13:16.762Z,44.76
2019-03-16T13:15:49.363Z,44.56
2019-03-16T13:18:21.710Z,45.40
2019-03-16T13:20:53.519Z,45.99
2019-03-16T13:23:25.507Z,45.33
2019-03-16T13:25:57.417Z,44.50
2019-03-16T13:28:29.020Z,44.03
2019-03-16T13:31:00.647Z,45.23
2019-03-16T13:33:33.347Z,46.82
2019-03-16T13:36:04.959Z,45.75
2019-03-16T13:38:36.646Z,46.05
2019-03-16T13:41:08.414Z,47.44
2019-03-16T13:43:40.055Z,45.35
2019-03-16T13:46:11.671Z,45.26
2019-03-16T13:48:43.579Z,45.02
2019-03-16T13:51:15.196Z,45.80
2019-03-16T13:53:46.824Z,45.27
2019-03-16T13:56:18.492Z,45.15
2019-03-16T13:58:50.392Z,44.63
2019-03-16T14:01:22.108Z,44.63
2019-03-16T14:03:53.928Z,44.43
2019-03-16T14:06:25.897Z,44.76
2019-03-16T14:08:57.807Z,45.08
2019-03-16T14:11:29.439Z,43.09
2019-03-16T14:14:01.048Z,41.90
2019-03-16T14:16:32.720Z,41.77
2019-03-16T14:19:04.641Z,41.84
2019-03-16T14:21:38.030Z,42.48
2019-03-16T14:24:09.715Z,41.20
2019-03-16T14:26:42.619Z,42.07
2019-03-16T14:29:14.401Z,41.37
2019-03-16T14:31:48.016Z,41.40
2019-03-16T14:34:20.129Z,40.81
2019-03-16T14:36:53.338Z,42.38
2019-03-16T14:39:27.389Z,41.08
2019-03-16T14:41:59.636Z,40.72
2019-03-16T14:44:32.300Z,41.64
2019-03-16T14:47:04.172Z,41.89
2019-03-16T14:49:35.874Z,43.04
2019-03-16T14:52:07.790Z,42.90
2019-03-16T14:54:39.482Z,43.48
2019-03-16T14:57:11.164Z,43.70
2019-03-16T14:59:44.009Z,44.08
2019-03-16T15:02:15.616Z,42.84
2019-03-16T15:04:47.310Z,43.47
2019-03-16T15:07:18.915Z,43.70
2019-03-16T15:09:50.646Z,43.89
2019-03-16T15:12:22.466Z,44.49
2019-03-16T15:14:54.542Z,46.05
2019-03-16T15:17:28.352Z,46.06
2019-03-16T15:20:00.571Z,46.63
2019-03-16T15:22:32.371Z,46.98
2019-03-16T15:25:04.488Z,46.63
2019-03-16T15:27:36.284Z,46.67
2019-03-16T15:30:10.520Z,46.53
2019-03-16T15:32:44.796Z,46.74
2019-03-16T15:35:17.385Z,47.10
2019-03-16T15:37:49.327Z,46.75
2019-03-16T15:40:21.406Z,45.93
2019-03-16T15:42:54.615Z,47.11
2019-03-16T15:45:26.889Z,47.10
2019-03-16T15:47:58.805Z,47.86
2019-03-16T15:50:30.688Z,48.77
2019-03-16T15:53:02.499Z,49.56
2019-03-16T15:55:34.268Z,50.22
2019-03-16T15:58:08.435Z,51.06
2019-03-16T16:00:39.585Z,51.02
2019-03-16T16:03:11.548Z,51.52
2019-03-16T16:05:43.361Z,51.52
2019-03-16T16:08:15.134Z,52.08
2019-03-16T16:10:59.714Z,52.49
2019-03-16T16:13:22.052Z,52.58
2019-03-16T16:15:55.013Z,53.00
2019-03-16T16:18:26.777Z,52.51
2019-03-16T16:20:58.644Z,52.95
2019-03-16T16:23:30.440Z,53.13
2019-03-16T16:26:02.293Z,54.13
2019-03-16T16:28:34.414Z,54.13
2019-03-16T16:31:16.229Z,54.67
2019-03-16T16:33:40.686Z,54.85
2019-03-16T16:36:12.502Z,55.35
2019-03-16T16:38:44.427Z,55.76
2019-03-16T16:41:16.260Z,55.65
2019-03-16T16:43:48.140Z,55.49
2019-03-16T16:46:19.765Z,55.86
2019-03-16T16:48:51.543Z,57.07
2019-03-16T16:51:23.345Z,56.37
2019-03-16T16:53:55.298Z,57.38
2019-03-16T16:56:27.247Z,58.29
2019-03-16T16:58:59.078Z,59.54
2019-03-16T17:01:32.258Z,59.55
2019-03-16T17:04:04.578Z,60.06
2019-03-16T17:06:36.445Z,60.82
2019-03-16T17:09:08.805Z,61.38
2019-03-16T17:11:40.452Z,62.73
2019-03-16T17:14:12.230Z,63.67
2019-03-16T17:16:43.929Z,63.71
2019-03-16T17:19:15.663Z,64.70
2019-03-16T17:21:47.406Z,65.51
2019-03-16T17:24:19.460Z,65.99
2019-03-16T17:26:54.373Z,66.33
2019-03-16T17:29:26.799Z,67.69
2019-03-16T17:31:58.763Z,67.31
2019-03-16T17:34:30.496Z,67.71
2019-03-16T17:37:02.402Z,69.27
2019-03-16T17:39:34.151Z,68.00
2019-03-16T17:42:07.913Z,68.68
2019-03-16T17:44:39.785Z,69.85
2019-03-16T17:47:11.711Z,70.06
2019-03-16T17:49:44.876Z,70.55
2019-03-16T17:52:16.749Z,71.17
2019-03-16T17:54:48.411Z,71.87
2019-03-16T17:57:20.106Z,70.41
2019-03-16T17:59:52.316Z,71.70
2019-03-16T18:02:24.009Z,71.61
2019-03-16T18:04:59.578Z,71.48
2019-03-16T18:07:34.231Z,72.64
2019-03-16T18:10:08.580Z,72.82
2019-03-16T18:12:40.710Z,72.67
2019-03-16T18:15:12.912Z,72.75
2019-03-16T18:17:47.211Z,72.96
2019-03-16T18:20:19.225Z,73.69
2019-03-16T18:22:51.135Z,74.20
2019-03-16T18:25:23.491Z,74.02
2019-03-16T18:27:55.297Z,73.43
2019-03-16T18:30:27.161Z,74.30
2019-03-16T18:32:59.473Z,74.40
2019-03-16T18:35:31.304Z,74.43
2019-03-16T18:38:03.073Z,74.36
2019-03-16T18:40:34.884Z,74.69
2019-03-16T18:43:06.841Z,74.83
2019-03-16T18:45:39.438Z,74.32
2019-03-16T18:48:13.451Z,74.64
2019-03-16T18:50:46.276Z,74.24
2019-03-16T18:53:22.378Z,74.94
2019-03-16T18:55:55.676Z,75.00
2019-03-16T18:58:37.033Z,75.41
2019-03-16T19:01:03.225Z,75.18
2019-03-16T19:03:39.800Z,75.01
2019-03-16T19:06:12.563Z,76.10
2019-03-16T19:08:44.289Z,75.39
2019-03-16T19:11:16.591Z,75.67
2019-03-16T19:13:48.843Z,75.54
2019-03-16T19:16:20.936Z,76.58
2019-03-16T19:18:52.772Z,77.19
2019-03-16T19:21:24.698Z,77.83
2019-03-16T19:23:56.944Z,77.44
2019-03-16T19:26:30.078Z,77.44
2019-03-16T19:29:02.262Z,76.47
2019-03-16T19:31:34.086Z,76.11
2019-03-16T19:34:07.081Z,75.85
2019-03-16T19:36:39.478Z,75.79
2019-03-16T19:39:11.723Z,76.02
2019-03-16T19:41:46.313Z,76.65
2019-03-16T19:44:18.426Z,76.53
2019-03-16T19:46:52.234Z,76.55
2019-03-16T19:49:26.247Z,76.75
2019-03-16T19:52:01.559Z,77.31
2019-03-16T19:54:33.758Z,77.38
2019-03-16T19:57:15.480Z,77.72
2019-03-16T19:59:42.148Z,77.92
2019-03-16T20:02:14.648Z,77.90
2019-03-16T20:04:46.506Z,77.99
2019-03-16T20:07:19.592Z,78.56
2019-03-16T20:09:53.115Z,78.38
2019-03-16T20:12:24.863Z,78.26
2019-03-16T20:14:56.955Z,78.45
2019-03-16T20:17:28.859Z,78.94
2019-03-16T20:20:01.293Z,78.72
2019-03-16T20:22:33.422Z,78.55
2019-03-16T20:25:05.501Z,78.54
2019-03-16T20:27:38.699Z,78.80
2019-03-16T20:30:26.458Z,78.62
2019-03-16T20:33:04.370Z,79.00
2019-03-16T20:35:37.150Z,78.92
2019-03-16T20:38:08.870Z,79.29
2019-03-16T20:40:40.652Z,79.15
2019-03-16T20:43:12.364Z,79.43
2019-03-16T20:45:44.084Z,79.20
2019-03-16T20:48:15.902Z,79.62
2019-03-16T20:50:47.613Z,79.37
2019-03-16T20:53:19.311Z,79.27
2019-03-16T20:55:51.200Z,79.65
2019-03-16T20:58:23.148Z,79.49
2019-03-16T21:00:57.877Z,80.15
2019-03-16T21:03:29.185Z,80.26
2019-03-16T21:06:00.925Z,79.96
2019-03-16T21:08:32.751Z,80.40
2019-03-16T21:11:04.500Z,80.20
2019-03-16T21:13:36.603Z,79.83
2019-03-16T21:16:10.718Z,79.88
2019-03-16T21:18:42.799Z,80.14
2019-03-16T21:21:14.456Z,79.88
2019-03-16T21:23:46.134Z,79.74
2019-03-16T21:26:17.734Z,80.45
2019-03-16T21:28:49.421Z,80.16
2019-03-16T21:31:21.047Z,81.14
2019-03-16T21:33:52.706Z,81.18
2019-03-16T21:36:24.363Z,81.12
2019-03-16T21:38:56.916Z,80.22
2019-03-16T21:41:28.597Z,81.48
2019-03-16T21:44:00.260Z,80.70
2019-03-16T21:46:31.849Z,81.20
2019-03-16T21:49:03.446Z,81.46
2019-03-16T21:51:35.125Z,81.01
2019-03-16T21:54:06.799Z,81.31
2019-03-16T21:56:38.407Z,82.22
2019-03-16T21:59:10.057Z,81.93
2019-03-16T22:01:41.676Z,81.65
2019-03-16T22:04:13.266Z,81.89
2019-03-16T22:06:44.866Z,81.66
2019-03-16T22:09:16.932Z,82.03
2019-03-16T22:11:48.567Z,82.25
2019-03-16T22:14:20.162Z,81.66
2019-03-16T22:16:51.783Z,81.88
2019-03-16T22:19:23.377Z,82.01
2019-03-16T22:21:55.085Z,81.78
2019-03-16T22:24:28.085Z,81.38
2019-03-16T22:27:00.015Z,80.82
2019-03-16T22:29:31.595Z,81.05
2019-03-16T22:32:03.307Z,81.34
2019-03-16T22:34:34.954Z,81.58
2019-03-16T22:37:06.590Z,81.42
2019-03-16T22:39:38.159Z,81.56
2019-03-16T22:42:09.785Z,81.22
2019-03-16T22:44:41.439Z,81.10
2019-03-16T22:47:13.118Z,81.27
2019-03-16T22:49:44.767Z,81.34
2019-03-16T22:52:16.427Z,81.42
2019-03-16T22:54:48.013Z,81.38
2019-03-16T22:57:19.616Z,81.26
2019-03-16T22:59:51.326Z,81.94
2019-03-16T23:02:23.188Z,81.80
2019-03-16T23:04:54.999Z,81.39
2019-03-16T23:07:26.965Z,81.28
2019-03-16T23:09:58.613Z,81.26
2019-03-16T23:12:30.223Z,81.47
2019-03-16T23:15:01.913Z,81.89
2019-03-16T23:17:33.784Z,81.84
2019-03-16T23:20:05.600Z,82.24
2019-03-16T23:22:37.276Z,82.60
2019-03-16T23:25:08.939Z,82.32
2019-03-16T23:27:40.607Z,82.06
2019-03-16T23:30:12.280Z,82.23
2019-03-16T23:32:43.964Z,81.98
2019-03-16T23:35:15.629Z,82.09
2019-03-16T23:37:47.288Z,81.46
2019-03-16T23:40:18.939Z,81.12
2019-03-16T23:42:50.720Z,81.00
2019-03-16T23:45:22.307Z,81.32
2019-03-16T23:47:54.084Z,81.19
2019-03-16T23:50:25.786Z,81.85
2019-03-16T23:52:57.396Z,81.47
2019-03-16T23:55:28.996Z,81.95
2019-03-16T23:58:00.644Z,82.57
